Map

Track Data

SID SEASON NUMBER BASIN SUBBASIN NAME ISO_TIME NATURE LAT LON WMO_WIND WMO_PRES WMO_AGENCY TRACK_TYPE DIST2LAND LANDFALL IFLAG USA_AGENCY USA_ATCF_ID USA_LAT USA_LON USA_RECORD USA_STATUS USA_WIND USA_PRES USA_SSHS USA_R34_NE USA_R34_SE USA_R34_SW USA_R34_NW USA_R50_NE USA_R50_SE USA_R50_SW USA_R50_NW USA_R64_NE USA_R64_SE USA_R64_SW USA_R64_NW USA_POCI USA_ROCI USA_RMW USA_EYE TOKYO_LAT TOKYO_LON TOKYO_GRADE TOKYO_WIND TOKYO_PRES TOKYO_R50_DIR TOKYO_R50_LONG TOKYO_R50_SHORT TOKYO_R30_DIR TOKYO_R30_LONG TOKYO_R30_SHORT TOKYO_LAND CMA_LAT CMA_LON CMA_CAT CMA_WIND CMA_PRES HKO_LAT HKO_LON HKO_CAT HKO_WIND HKO_PRES NEWDELHI_LAT NEWDELHI_LON NEWDELHI_GRADE NEWDELHI_WIND NEWDELHI_PRES NEWDELHI_CI NEWDELHI_DP NEWDELHI_POCI REUNION_LAT REUNION_LON REUNION_TYPE REUNION_WIND REUNION_PRES REUNION_TNUM REUNION_CI REUNION_RMW REUNION_R34_NE REUNION_R34_SE REUNION_R34_SW REUNION_R34_NW REUNION_R50_NE REUNION_R50_SE REUNION_R50_SW REUNION_R50_NW REUNION_R64_NE REUNION_R64_SE REUNION_R64_SW REUNION_R64_NW BOM_LAT BOM_LON BOM_TYPE BOM_WIND BOM_PRES BOM_TNUM BOM_CI BOM_RMW BOM_R34_NE BOM_R34_SE BOM_R34_SW BOM_R34_NW BOM_R50_NE BOM_R50_SE BOM_R50_SW BOM_R50_NW BOM_R64_NE BOM_R64_SE BOM_R64_SW BOM_R64_NW BOM_ROCI BOM_POCI BOM_EYE BOM_POS_METHOD BOM_PRES_METHOD NADI_LAT NADI_LON NADI_CAT NADI_WIND NADI_PRES WELLINGTON_LAT WELLINGTON_LON WELLINGTON_WIND WELLINGTON_PRES DS824_LAT DS824_LON DS824_STAGE DS824_WIND DS824_PRES TD9636_LAT TD9636_LON TD9636_STAGE TD9636_WIND TD9636_PRES TD9635_LAT TD9635_LON TD9635_WIND TD9635_PRES TD9635_ROCI NEUMANN_LAT NEUMANN_LON NEUMANN_CLASS NEUMANN_WIND NEUMANN_PRES MLC_LAT MLC_LON MLC_CLASS MLC_WIND MLC_PRES USA_GUST BOM_GUST BOM_GUST_PER REUNION_GUST REUNION_GUST_PER USA_SEAHGT USA_SEARAD_NE USA_SEARAD_SE USA_SEARAD_SW USA_SEARAD_NW STORM_SPEED STORM_DIR
1931062S18066 1931 11 SI MM NOT_NAMED 1931-03-02 18:00:00 NR -17.7000 65.6000 main 870 836 __________O___ -1 -17.7000 65.6000 7 7 254
1931062S18066 1931 11 SI MM NOT_NAMED 1931-03-02 21:00:00 NR -17.8022 65.2316 main 826 792 __________P___ -1 -17.8022 65.2316 7 7 254
1931062S18066 1931 11 SI MM NOT_NAMED 1931-03-03 00:00:00 NR -17.9032 64.8704 main 792 749 __________P___ -1 -17.9032 64.8704 7 7 253
1931062S18066 1931 11 SI MM NOT_NAMED 1931-03-03 03:00:00 NR -18.0026 64.5240 main 749 735 __________P___ -1 -18.0026 64.5240 7 5 252
1931062S18066 1931 11 SI MM NOT_NAMED 1931-03-03 06:00:00 TS -18.0667 64.3500 reunion main 735 705 _____O___OO___ -1 -17.9000 65.1000 99 9.90000 -18.1000 64.2000 TC 35 -18.1000 64.2000 2 4 249
1931062S18066 1931 11 SI MM NOT_NAMED 1931-03-03 09:00:00 TS -18.1536 64.1120 main 701 682 _____P___PP___ -1 -18.0229 64.7541 99 -18.2001 63.8876 TC 35 -18.1956 63.9032 2 5 249
1931062S18066 1931 11 SI MM NOT_NAMED 1931-03-03 12:00:00 TS -18.2509 63.8521 main 678 648 _____P___OP___ -1 -18.1468 64.4040 99 -18.3000 63.6000 TC 35 -18.2921 63.6272 2 5 248
1931062S18066 1931 11 SI MM NOT_NAMED 1931-03-03 15:00:00 TS -18.3553 63.5861 main 644 610 _____P___PP___ -1 -18.2733 64.0458 99 -18.3999 63.3499 TC 35 -18.3926 63.3626 2 6 248
1931062S18066 1931 11 SI MM NOT_NAMED 1931-03-03 18:00:00 TS -18.4680 63.2920 main 610 577 _____P___OO___ -1 -18.4041 63.6759 99 -18.5000 63.1000 TC 35 -18.5000 63.1000 2 6 249
1931062S18066 1931 11 SI MM NOT_NAMED 1931-03-03 21:00:00 TS -18.5794 62.9838 main 577 543 _____P___PP___ -1 -18.5406 63.2902 99 -18.5925 62.8000 TC 35 -18.6050 62.8611 2 6 249
1931062S18066 1931 11 SI MM NOT_NAMED 1931-03-04 00:00:00 TS -18.7012 62.6672 main 543 510 _____P___OP___ -1 -18.6845 62.8850 99 -18.7000 62.5000 TC 35 -18.7191 62.6167 2 6 246
1931062S18066 1931 11 SI MM NOT_NAMED 1931-03-04 03:00:00 TS -18.8402 62.3584 main 510 463 _____P___PP___ -1 -18.8371 62.4563 99 -18.8347 62.2798 TC 35 -18.8486 62.3390 2 7 245
1931062S18066 1931 11 SI MM NOT_NAMED 1931-03-04 06:00:00 TS -19.0000 62.0000 reunion main 463 416 _____O___OO___ -1 -19.0000 62.0000 99 9.90000 -19.0000 62.0000 TC 35 -19.0000 62.0000 2 9 246
1931062S18066 1931 11 SI MM NOT_NAMED 1931-03-04 09:00:00 TS -19.1844 61.5377 main 406 359 _____P___PP___ -1 -19.1737 61.5145 99 -19.1926 61.5375 TC 35 -19.1869 61.5610 2 10 247
1931062S18066 1931 11 SI MM NOT_NAMED 1931-03-04 12:00:00 TS -19.3827 61.0227 main 349 292 _____P___OP___ -1 -19.3551 61.0075 99 -19.4000 61.0000 TC 35 -19.3930 61.0605 2 11 248
1931062S18066 1931 11 SI MM NOT_NAMED 1931-03-04 15:00:00 TS -19.5835 60.5039 main 292 236 _____P___PP___ -1 -19.5405 60.4894 99 -19.6074 60.4925 TC 35 -19.6025 60.5297 2 11 248
1931062S18066 1931 11 SI MM NOT_NAMED 1931-03-04 18:00:00 TS -19.7753 59.9902 main 236 183 _____P___OO___ -1 -19.7260 59.9706 99 -19.8000 60.0000 TC 35 -19.8000 60.0000 2 10 249
1931062S18066 1931 11 SI MM NOT_NAMED 1931-03-04 21:00:00 TS -19.9488 59.4962 main 183 127 _____P___PP___ -1 -19.9082 59.4616 99 -19.9573 59.5498 TC 35 -19.9808 59.4772 2 10 250
1931062S18066 1931 11 SI MM NOT_NAMED 1931-03-05 00:00:00 TS -20.1096 59.0135 main 127 83 _____P___OP___ -1 -20.0835 58.9730 99 -20.1000 59.1000 TC 35 -20.1453 58.9677 2 10 251
1931062S18066 1931 11 SI MM NOT_NAMED 1931-03-05 03:00:00 TS -20.2670 58.5283 main 72 33 _____P___PP___ -1 -20.2485 58.5155 99 -20.2652 58.5701 TC 35 -20.2872 58.4992 2 9 251
1931062S18066 1931 11 SI MM NOT_NAMED 1931-03-05 06:00:00 TS -20.4000 58.1000 reunion main 33 10 _____O___OO___ -1 -20.4000 58.1000 99 9.90000 -20.4000 58.1000 TC 35 -20.4000 58.1000 2 7 253
1931062S18066 1931 11 SI MM NOT_NAMED 1931-03-05 09:00:00 TS -20.4851 57.7843 main 10 0 _____P___PP___ -1 -20.5206 57.7376 99 -20.4648 57.8048 TC 35 -20.4698 57.8106 2 6 254
1931062S18066 1931 11 SI MM NOT_NAMED 1931-03-05 12:00:00 TS -20.5475 57.5340 main 0 0 _____P___OP___ -1 -20.6285 57.4128 99 -20.5000 57.6000 TC 35 -20.5139 57.5892 2 5 255
1931062S18066 1931 11 SI MM NOT_NAMED 1931-03-05 15:00:00 TS -20.6069 57.3096 main 11 11 _____P___PP___ -1 -20.7270 57.1231 99 -20.5424 57.4074 TC 35 -20.5512 57.3982 2 4 253
1931062S18066 1931 11 SI MM NOT_NAMED 1931-03-05 18:00:00 TS -20.6732 57.0885 main 30 30 _____P___OO___ -1 -20.8197 56.8654 99 -20.6000 57.2000 TC 35 -20.6000 57.2000 2 5 251
1931062S18066 1931 11 SI MM NOT_NAMED 1931-03-05 21:00:00 TS -20.7628 56.8186 main 61 61 _____P___PP___ -1 -20.9100 56.6371 99 -20.6926 56.9075 TC 35 -20.6859 56.9111 2 5 249
1931062S18066 1931 11 SI MM NOT_NAMED 1931-03-06 00:00:00 TS -20.8622 56.5494 main 76 53 _____P___OP___ -1 -21.0012 56.4353 99 -20.8000 56.6000 TC 35 -20.7854 56.6128 2 5 247
1931062S18066 1931 11 SI MM NOT_NAMED 1931-03-06 03:00:00 TS -20.9630 56.3034 main 53 31 _____P___PP___ -1 -21.0968 56.2573 99 -20.9000 56.3200 TC 35 -20.8921 56.3330 2 5 244
1931062S18066 1931 11 SI MM NOT_NAMED 1931-03-06 06:00:00 TS -21.0667 56.1000 reunion main 31 10 _____O___OO___ -1 -21.2000 56.1000 99 9.90000 -21.0000 56.1000 TC 35 -21.0000 56.1000 2 4 239
1931062S18066 1931 11 SI MM NOT_NAMED 1931-03-06 09:00:00 TS -21.1683 55.9321 main 10 0 _____P___PP___ -1 -21.3134 55.8855 99 -21.0999 55.9774 TC 35 -21.0916 55.9333 2 3 233
1931062S18066 1931 11 SI MM NOT_NAMED 1931-03-06 12:00:00 TS -21.2722 55.8022 main 0 0 _____P___OP___ -1 -21.4320 55.6892 99 -21.2000 55.9000 TC 35 -21.1847 55.8174 2 3 228
1931062S18066 1931 11 SI MM NOT_NAMED 1931-03-06 15:00:00 TS -21.3782 55.6845 main 10 0 _____P___PP___ -1 -21.5566 55.5183 99 -21.2925 55.7925 TC 35 -21.2855 55.7427 2 3 221
1931062S18066 1931 11 SI MM NOT_NAMED 1931-03-06 18:00:00 TS -21.4961 55.5934 main 11 11 _____P___OO___ -1 -21.6882 55.3801 99 -21.4000 55.7000 TC 35 -21.4000 55.7000 2 3 212
1931062S18066 1931 11 SI MM NOT_NAMED 1931-03-06 21:00:00 TS -21.6284 55.5161 main 24 24 _____P___PP___ -1 -21.8274 55.2818 99 -21.5425 55.6275 TC 35 -21.5152 55.6390 2 3 200
1931062S18066 1931 11 SI MM NOT_NAMED 1931-03-07 00:00:00 TS -21.7742 55.4804 main 45 45 _____P___OP___ -1 -21.9753 55.2307 99 -21.7000 55.6000 TC 35 -21.6473 55.6105 2 3 0
1931062S18066 1931 11 SI MM NOT_NAMED 1931-03-07 03:00:00 TS -21.9219 55.4937 main 56 56 _____P___PP___ -1 -22.1325 55.2343 99 -21.8275 55.6201 TC 35 -21.8058 55.6267 2 3 166
1931062S18066 1931 11 SI MM NOT_NAMED 1931-03-07 06:00:00 TS -22.1000 55.5667 reunion main 78 78 _____O___OO___ -1 -22.3000 55.3000 99 9.90000 -22.0000 55.7000 TC 35 -22.0000 55.7000 2 5 156
1931062S18066 1931 11 SI MM NOT_NAMED 1931-03-07 09:00:00 TS -22.3410 55.6930 main 101 101 _____P___PP___ -1 -22.4826 55.4290 99 -22.2850 55.8200 TC 35 -22.2553 55.8299 2 6 150
1931062S18066 1931 11 SI MM NOT_NAMED 1931-03-07 12:00:00 TS -22.6063 55.8797 main 137 137 _____P___OP___ -1 -22.6765 55.6220 99 -22.6000 56.0000 TC 35 -22.5425 56.0170 2 7 143
1931062S18066 1931 11 SI MM NOT_NAMED 1931-03-07 15:00:00 TS -22.8590 56.1168 main 175 175 _____P___PP___ -1 -22.8786 55.8698 99 -22.8650 56.2350 TC 35 -22.8334 56.2456 2 7 136
1931062S18066 1931 11 SI MM NOT_NAMED 1931-03-07 18:00:00 TS -23.0952 56.3876 main 207 207 _____P___OO___ -1 -23.0855 56.1629 99 -23.1000 56.5000 TC 35 -23.1000 56.5000 2 7 132
1931062S18066 1931 11 SI MM NOT_NAMED 1931-03-07 21:00:00 TS -23.3042 56.6547 main 240 240 _____P___PP___ -1 -23.2942 56.4919 99 -23.3149 56.7426 TC 35 -23.3034 56.7296 2 6 128
1931062S18066 1931 11 SI MM NOT_NAMED 1931-03-08 00:00:00 TS -23.4937 56.9436 main 270 270 _____P___OP___ -1 -23.5015 56.8476 99 -23.5000 57.0000 TC 35 -23.4794 56.9833 2 7 123
1931062S18066 1931 11 SI MM NOT_NAMED 1931-03-08 03:00:00 TS -23.6675 57.2535 main 309 309 _____P___PP___ -1 -23.7045 57.2201 99 -23.6573 57.2702 TC 35 -23.6408 57.2703 2 7 119
1931062S18066 1931 11 SI MM NOT_NAMED 1931-03-08 06:00:00 TS -23.8333 57.6000 reunion main 335 335 _____O___OO___ -1 -23.9000 57.6000 99 9.90000 -23.8000 57.6000 TC 35 -23.8000 57.6000 2 8 116
1931062S18066 1931 11 SI MM NOT_NAMED 1931-03-08 09:00:00 TS -24.0022 57.9943 main 376 376 _____P___PP___ -1 -24.0845 57.9539 99 -23.9426 58.0351 TC 35 -23.9794 57.9939 2 8 115
1931062S18066 1931 11 SI MM NOT_NAMED 1931-03-08 12:00:00 TS -24.1739 58.4171 main 419 419 _____P___OP___ -1 -24.2636 58.3239 99 -24.1000 58.5000 TC 35 -24.1580 58.4273 2 8 115
1931062S18066 1931 11 SI MM NOT_NAMED 1931-03-08 15:00:00 TS -24.3564 58.8307 main 450 450 _____P___PP___ -1 -24.4368 58.7050 99 -24.2999 58.9150 TC 35 -24.3325 58.8721 2 8 116
1931062S18066 1931 11 SI MM NOT_NAMED 1931-03-08 18:00:00 TS -24.5346 59.2307 main 472 472 _____P___OO___ -1 -24.6037 59.0922 99 -24.5000 59.3000 TC 35 -24.5000 59.3000 2 8 115
1931062S18066 1931 11 SI MM NOT_NAMED 1931-03-08 21:00:00 TS -24.6932 59.6091 main 508 508 _____P___PP___ -1 -24.7638 59.4804 99 -24.6574 59.6577 TC 35 -24.6586 59.6893 2 7 115
1931062S18066 1931 11 SI MM NOT_NAMED 1931-03-09 00:00:00 TS -24.8497 59.9592 main 535 535 _____P___OP___ -1 -24.9167 59.8645 99 -24.8000 60.0000 TC 35 -24.8100 60.0447 2 7 117
1931062S18066 1931 11 SI MM NOT_NAMED 1931-03-09 03:00:00 TS -25.0071 60.3010 main 569 569 _____P___PP___ -1 -25.0622 60.2394 99 -24.9477 60.3473 TC 35 -24.9564 60.3778 2 7 117
1931062S18066 1931 11 SI MM NOT_NAMED 1931-03-09 06:00:00 TS -25.1667 60.6333 reunion main 603 603 _____O___OO___ -1 -25.2000 60.6000 99 9.90000 -25.1000 60.7000 TC 35 -25.1000 60.7000 2 7 119
1931062S18066 1931 11 SI MM NOT_NAMED 1931-03-09 09:00:00 NR -25.3300 60.9424 main 628 628 _____P________ -1 -25.3300 60.9424 99 TC 2 6 117
1931062S18066 1931 11 SI MM NOT_NAMED 1931-03-09 12:00:00 NR -25.4532 61.2677 main 669 669 _____P________ -1 -25.4532 61.2677 99 2 6 113
1931062S18066 1931 11 SI MM NOT_NAMED 1931-03-09 15:00:00 NR -25.5704 61.5783 main 695 695 _____P________ -1 -25.5704 61.5783 99 2 6 113
1931062S18066 1931 11 SI MM NOT_NAMED 1931-03-09 18:00:00 NR -25.6826 61.8769 main 722 722 _____P________ -1 -25.6826 61.8769 99 6 113
1931062S18066 1931 11 SI MM NOT_NAMED 1931-03-09 21:00:00 NR -25.7907 62.1659 main 749 749 _____P________ -1 -25.7907 62.1659 99 6 113
1931062S18066 1931 11 SI MM NOT_NAMED 1931-03-10 00:00:00 NR -25.8958 62.4477 main 771 771 _____P________ -1 -25.8958 62.4477 99 5 112
1931062S18066 1931 11 SI MM NOT_NAMED 1931-03-10 03:00:00 NR -25.9986 62.7249 main 798 798 _____P________ -1 -25.9986 62.7249 99 5 112
1931062S18066 1931 11 SI MM NOT_NAMED 1931-03-10 06:00:00 NR -26.1000 63.0000 reunion main 827 _____O________ -1 -26.1000 63.0000 99 9.90000 5 112

About IBTrACS Database

This database is a web-friendly format of International Best Track Archive for Climate Stewardship (IBTrACS), a global best track data archive curated by NOAA dating back to 1842.

Updated: 2021-10-21